createdAt,value
2023-05-20T00:01:58.739Z,75446.97
2023-05-20T00:12:01.644Z,75471.25
2023-05-20T00:22:06.968Z,75493.50
2023-05-20T00:32:10.690Z,75497.56
2023-05-20T00:42:20.443Z,75519.81
2023-05-20T00:52:25.148Z,75527.91
2023-05-20T01:02:31.424Z,75536.00
2023-05-20T01:12:39.377Z,75548.13
2023-05-20T01:22:54.249Z,75552.19
2023-05-20T01:33:02.856Z,75546.13
2023-05-20T01:43:06.412Z,75554.22
2023-05-20T01:53:11.134Z,75544.09
2023-05-20T02:03:18.596Z,75552.19
2023-05-20T02:13:20.869Z,75542.06
2023-05-20T02:23:23.931Z,75554.22
2023-05-20T02:33:29.409Z,75560.28
2023-05-20T02:43:33.123Z,75572.44
2023-05-20T02:53:37.507Z,75572.44
2023-05-20T03:03:41.077Z,75566.34
2023-05-20T03:13:43.441Z,75556.25
2023-05-20T03:23:46.985Z,75570.41
2023-05-20T03:33:52.017Z,75574.44
2023-05-20T03:43:54.437Z,75578.50
2023-05-20T03:53:56.698Z,75564.34
2023-05-20T04:04:01.426Z,75560.28
2023-05-20T04:14:05.949Z,75503.63
2023-05-20T04:24:09.428Z,75457.06
2023-05-20T04:34:15.187Z,75465.16
2023-05-20T04:44:18.107Z,75434.81
2023-05-20T04:54:20.575Z,75382.19
2023-05-20T05:04:25.399Z,75341.72
2023-05-20T05:14:27.660Z,75297.22
2023-05-20T05:24:31.147Z,75196.03
2023-05-20T05:34:36.145Z,75082.72
2023-05-20T05:44:43.591Z,75102.94
2023-05-20T05:54:48.336Z,75074.63
2023-05-20T06:04:53.108Z,75015.94
2023-05-20T06:14:57.569Z,74989.63
2023-05-20T06:25:02.744Z,74878.34
2023-05-20T06:35:07.215Z,74777.19
2023-05-20T06:45:12.068Z,74671.97
2023-05-20T06:55:21.228Z,74609.25
2023-05-20T07:05:29.299Z,74512.13
2023-05-20T07:15:36.362Z,74500.00
2023-05-20T07:25:43.424Z,74427.16
2023-05-20T07:35:48.036Z,74338.16
2023-05-20T07:45:53.910Z,74253.19
2023-05-20T07:55:59.195Z,74172.25
2023-05-20T08:06:04.106Z,74150.00
2023-05-20T08:16:10.502Z,74168.22
2023-05-20T08:26:14.057Z,74083.25
2023-05-20T08:36:19.843Z,73982.09
2023-05-20T08:46:27.585Z,74014.47
2023-05-20T08:56:34.823Z,73935.56
2023-05-20T09:06:49.462Z,74135.84
2023-05-20T09:16:53.883Z,74121.69
2023-05-20T09:26:56.666Z,74232.94
2023-05-20T09:36:59.764Z,74178.31
2023-05-20T09:47:02.636Z,74162.13
2023-05-20T09:57:10.006Z,74184.38
2023-05-20T10:07:41.822Z,74162.13
2023-05-20T10:18:13.260Z,74228.91
2023-05-20T10:28:15.608Z,74255.19
2023-05-20T10:38:21.587Z,74204.63
2023-05-20T10:48:24.844Z,74164.16
2023-05-20T10:58:29.914Z,74162.13
2023-05-20T11:08:33.162Z,74170.22
2023-05-20T11:18:37.621Z,74174.28
2023-05-20T11:28:40.336Z,74133.81
2023-05-20T11:38:47.228Z,74115.59
2023-05-20T11:48:56.851Z,74038.75
2023-05-20T11:59:01.822Z,74012.44
2023-05-20T12:09:14.399Z,74018.50
2023-05-20T12:19:22.179Z,74042.78
2023-05-20T12:29:27.843Z,74091.34
2023-05-20T12:39:31.207Z,74099.44
2023-05-20T12:49:35.926Z,74079.19
2023-05-20T12:59:42.788Z,74038.75
2023-05-20T13:09:47.245Z,74071.09
2023-05-20T13:19:52.180Z,74042.78
2023-05-20T13:29:58.960Z,74083.25
2023-05-20T13:40:03.429Z,74087.28
2023-05-20T13:50:08.467Z,74097.41
2023-05-20T14:00:13.853Z,74095.38
2023-05-20T14:10:16.070Z,74069.09
2023-05-20T14:20:18.622Z,74038.75
2023-05-20T14:30:23.826Z,73978.03
2023-05-20T14:40:31.345Z,73957.81
2023-05-20T14:50:36.396Z,73976.03
2023-05-20T15:00:43.165Z,73988.16
2023-05-20T15:10:47.975Z,74028.63
2023-05-20T15:20:50.262Z,74026.59
2023-05-20T15:30:57.140Z,74014.47
2023-05-20T15:41:02.514Z,74006.38
2023-05-20T15:51:09.858Z,74022.56
2023-05-20T16:01:14.598Z,74036.72
2023-05-20T16:11:16.821Z,74044.81
2023-05-20T16:21:25.323Z,74040.75
2023-05-20T16:31:30.776Z,74056.94
2023-05-20T16:41:35.170Z,74085.25
2023-05-20T16:51:37.432Z,74091.34
2023-05-20T17:01:40.308Z,74109.53
2023-05-20T17:11:46.131Z,74135.84
2023-05-20T17:21:48.360Z,74156.06
2023-05-20T17:31:52.981Z,74186.41
2023-05-20T17:41:55.779Z,74188.44
2023-05-20T17:51:58.099Z,74222.81
2023-05-20T18:02:06.542Z,74245.09
2023-05-20T18:12:09.635Z,74253.19
2023-05-20T18:22:14.617Z,74273.41
2023-05-20T18:32:19.299Z,74307.78
2023-05-20T18:42:24.060Z,74328.03
2023-05-20T18:52:26.270Z,74354.31
2023-05-20T19:02:35.751Z,74372.53
2023-05-20T19:12:43.824Z,74386.69
2023-05-20T19:22:48.253Z,74410.97
2023-05-20T19:33:06.155Z,74427.16
2023-05-20T19:43:11.499Z,74443.34
2023-05-20T19:53:16.328Z,74461.56
2023-05-20T20:03:20.896Z,74481.78
2023-05-20T20:13:26.084Z,74497.97
2023-05-20T20:23:28.405Z,74520.22
2023-05-20T20:33:35.542Z,74552.59
2023-05-20T20:43:40.281Z,74615.31
2023-05-20T20:53:43.332Z,74643.66
2023-05-20T21:03:48.777Z,74661.84
2023-05-20T21:13:53.449Z,74676.00
2023-05-20T21:23:56.852Z,74686.13
2023-05-20T21:33:59.234Z,74712.44
2023-05-20T21:44:04.055Z,74722.56
2023-05-20T21:54:06.285Z,74740.75
2023-05-20T22:04:08.548Z,74742.78
2023-05-20T22:14:20.150Z,74746.84
2023-05-20T22:24:22.636Z,74758.97
2023-05-20T22:34:24.872Z,74775.16
2023-05-20T22:44:29.542Z,74765.03
2023-05-20T22:54:36.496Z,74767.06
2023-05-20T23:04:39.174Z,74787.28
2023-05-20T23:14:41.909Z,74795.38
2023-05-20T23:24:44.036Z,74815.63
2023-05-20T23:34:53.069Z,74825.75
2023-05-20T23:44:58.005Z,74848.00
2023-05-20T23:55:02.512Z,74848.00
